Airfield :
LOGIN :

Register | Disclaimer

   EN    FR    IT 

 










Legend :    VFR   Marginal VFR   IFR   Intensive IFR   Very Intensive IFR
Visi :
Ceiling :
>= 8 km
>= 3000ft
5 to 8 km
1000 to 3000 ft
1500m to 5 km
500 to 1000 ft
800 to 1500m
200 to 500 ft
< 800m
< 200 ft
Symbols :   Thunderstorms  Fog  Heavy snow  Heavy precipitations  Wind > 20 kt
SIGMETs :     Misc.  Thunderstorms  Icing  Turbulence  Mountain Waves  Volcanic Ashes






- Airport Elevation : 1830 ft


EBLB - Butgenbach Elsenborn

CURRENT METAR :
  • 141325Z AUTO 14009KT 9999 OVC010/// 03/01 Q0999 GRN

EXPIRED METARs :
  • 141225Z AUTO 16008KT 9999 BKN012/// OVC052/// 03/01 Q1000 GRN
  • 141155Z AUTO 17007KT 9999 OVC014/// 03/01 Q1000 GRN
  • 141142Z AUTO 18007KT 9999 OVC014/// 03/01 Q1000 GRN
  • 141125Z AUTO 17007KT 9999 OVC015/// 03/00 Q1000 WHT
  • 141055Z AUTO 17009KT 9999 SCT017/// BKN054/// 04/00 Q1000 WHT
  • 141051Z AUTO 17010KT 9999 SCT017/// BKN054/// 04/01 Q1000 WHT

Expired Forecast.



MET'MAP, your aeronautical weather chart ! - Copyright ORBIFLY December 2007 - Disclaimer

ORBIFLY MET'MAP TEAM :

Programming & Development : Alexandra Zaïnal
Concept & Development : Baudouin d'Aumeries
Co-Development & Prog : Marc-Olivier Méhu
Technical & hardware support : Manuel Goepfert

Contact : metmap@orbifly.com




SOURCES & CREDITS :

   NOAA